Time;durP1;ratioP1;P1;durP2;ratioP2;P2;SDS_P1;SDS_P2;PMS_P1;PMS_P2;Temp;Humidity;BMP_temperature;BMP_pressure;BME280_temperature;BME280_humidity;BME280_pressure;Samples;Min_cycle;Max_cycle;Signal;HPM_P1;HPM_P2
2023/12/29 00:02:12;;;;;;;16.63;2.67;;;9.90;99.90;;;;;;4969319;28;20113;-88
2023/12/29 00:04:38;;;;;;;14.43;3.65;;;9.90;99.90;;;;;;5006730;28;20046;-87
2023/12/29 00:07:04;;;;;;;14.70;2.55;;;10.60;99.90;;;;;;4990222;28;20049;-88
2023/12/29 00:09:30;;;;;;;19.60;2.95;;;10.30;99.90;;;;;;4970330;28;20045;-88
2023/12/29 00:11:55;;;;;;;14.25;2.28;;;10.50;99.90;;;;;;5004081;28;20276;-84
2023/12/29 00:14:21;;;;;;;12.85;2.45;;;10.40;99.90;;;;;;5002836;28;20054;-90
2023/12/29 00:16:47;;;;;;;16.63;2.55;;;10.40;99.90;;;;;;5000856;28;20045;-85
2023/12/29 00:19:12;;;;;;;9.88;2.03;;;10.80;99.90;;;;;;4985442;28;20051;-91
2023/12/29 00:21:39;;;;;;;9.68;2.28;;;10.50;99.90;;;;;;4990481;28;20050;-87
2023/12/29 00:24:05;;;;;;;16.75;3.03;;;9.90;99.90;;;;;;4968488;28;20517;-86
2023/12/29 00:26:31;;;;;;;14.95;2.42;;;9.90;99.90;;;;;;4992505;28;20452;-84
2023/12/29 00:28:57;;;;;;;12.70;2.50;;;10.50;99.90;;;;;;4985245;28;20064;-90
2023/12/29 00:31:23;;;;;;;13.20;2.63;;;10.00;99.90;;;;;;4975762;28;20057;-91
2023/12/29 00:33:51;;;;;;;11.60;2.25;;;10.00;99.90;;;;;;5009378;28;20405;-87
2023/12/29 00:36:17;;;;;;;15.10;2.88;;;9.80;99.90;;;;;;5006194;28;20050;-88
2023/12/29 00:38:43;;;;;;;14.05;2.63;;;9.90;99.90;;;;;;4992956;28;20822;-93
2023/12/29 00:41:09;;;;;;;15.07;2.30;;;10.70;99.90;;;;;;4993288;28;20042;-84
2023/12/29 00:43:35;;;;;;;17.10;2.70;;;9.90;99.90;;;;;;4993628;28;20699;-88
2023/12/29 00:46:08;;;;;;;17.10;2.78;;;10.10;99.90;;;;;;5008872;28;20046;-91
2023/12/29 00:48:34;;;;;;;12.98;2.45;;;9.80;99.90;;;;;;4961766;28;20046;-92
2023/12/29 00:51:04;;;;;;;16.05;3.08;;;10.60;99.90;;;;;;4960576;28;20038;-87
2023/12/29 00:53:31;;;;;;;16.27;2.67;;;9.90;99.90;;;;;;4961361;28;20486;-85
2023/12/29 00:55:58;;;;;;;15.45;2.33;;;10.60;99.90;;;;;;5003682;28;20086;-93
2023/12/29 00:58:26;;;;;;;15.57;2.30;;;10.20;99.90;;;;;;4983144;28;20409;-92
2023/12/29 01:00:52;;;;;;;10.23;1.80;;;9.30;99.90;;;;;;4979331;28;20073;-88
2023/12/29 01:03:18;;;;;;;10.68;2.38;;;10.60;99.90;;;;;;4977051;28;20046;-86
2023/12/29 01:05:43;;;;;;;16.23;2.58;;;9.70;99.90;;;;;;4982321;28;20138;-88
2023/12/29 01:08:09;;;;;;;17.30;2.90;;;10.00;99.90;;;;;;5001160;28;20822;-85
2023/12/29 01:10:35;;;;;;;14.23;2.45;;;9.70;99.90;;;;;;4966760;28;20042;-92
2023/12/29 01:13:00;;;;;;;15.27;3.03;;;10.60;99.90;;;;;;4994865;28;20050;-86
2023/12/29 01:15:27;;;;;;;17.60;3.97;;;9.70;99.90;;;;;;4984431;28;20083;-90
2023/12/29 01:17:55;;;;;;;15.85;2.92;;;9.80;99.90;;;;;;4987755;28;20153;-85
2023/12/29 01:20:20;;;;;;;20.83;3.08;;;10.00;99.90;;;;;;5003685;28;20057;-85
2023/12/29 01:22:46;;;;;;;19.85;3.50;;;10.30;99.90;;;;;;4985669;28;20758;-86
2023/12/29 01:25:12;;;;;;;18.33;3.00;;;9.60;99.90;;;;;;5005672;28;20264;-84
2023/12/29 01:27:37;;;;;;;15.02;3.45;;;9.90;99.90;;;;;;5004500;28;20487;-84
2023/12/29 01:30:04;;;;;;;19.45;3.15;;;10.00;99.90;;;;;;4989625;28;20560;-87
2023/12/29 01:32:30;;;;;;;23.38;3.63;;;9.50;99.90;;;;;;4991726;28;20042;-87
2023/12/29 01:34:55;;;;;;;16.73;2.85;;;10.30;99.90;;;;;;4972196;28;20513;-83
2023/12/29 01:37:21;;;;;;;20.45;3.10;;;9.50;99.90;;;;;;4989083;28;20061;-86
2023/12/29 01:39:46;;;;;;;17.35;3.25;;;10.10;99.90;;;;;;4995831;28;20037;-89
2023/12/29 01:42:12;;;;;;;16.50;4.28;;;10.30;99.90;;;;;;4987978;28;20050;-90
2023/12/29 01:44:38;;;;;;;10.30;1.77;;;9.90;99.90;;;;;;4993311;28;20104;-82
2023/12/29 01:47:10;;;;;;;7.82;1.55;;;9.90;99.90;;;;;;4987642;28;20100;-82
2023/12/29 01:49:36;;;;;;;12.70;1.80;;;10.40;99.90;;;;;;4970065;28;20049;-85
2023/12/29 01:52:02;;;;;;;9.88;1.20;;;9.90;99.90;;;;;;4972785;28;20056;-85
2023/12/29 01:54:34;;;;;;;5.68;1.15;;;9.30;99.90;;;;;;4973842;28;20058;-85
2023/12/29 01:57:02;;;;;;;3.53;1.08;;;10.00;99.90;;;;;;4990265;28;20049;-84
2023/12/29 01:59:29;;;;;;;4.50;0.80;;;10.10;99.90;;;;;;4972849;28;20125;-85
2023/12/29 02:01:58;;;;;;;4.18;0.80;;;9.10;99.90;;;;;;4978564;28;20046;-84
2023/12/29 02:04:27;;;;;;;4.93;0.95;;;9.10;99.90;;;;;;4991178;28;20131;-86
2023/12/29 02:06:54;;;;;;;4.63;0.70;;;10.00;99.90;;;;;;4992537;28;20394;-89
2023/12/29 02:09:19;;;;;;;2.88;0.65;;;9.00;99.90;;;;;;5001857;28;20512;-84
2023/12/29 02:11:46;;;;;;;4.22;0.93;;;9.40;99.90;;;;;;4996516;28;20121;-85
2023/12/29 02:14:12;;;;;;;2.42;0.60;;;8.80;99.90;;;;;;4991733;28;20041;-86
2023/12/29 02:16:40;;;;;;;9.40;1.25;;;9.60;99.90;;;;;;4977261;28;20141;-88
2023/12/29 02:19:31;;;;;;;9.88;1.33;;;9.10;99.90;;;;;;4996352;28;20565;-89
2023/12/29 02:21:57;;;;;;;11.77;1.45;;;8.60;99.90;;;;;;4994645;28;20061;-84
2023/12/29 02:24:22;;;;;;;11.85;1.80;;;9.40;99.90;;;;;;4977348;28;20505;-84
2023/12/29 02:26:53;;;;;;;9.73;1.63;;;8.90;99.90;;;;;;4978685;28;20057;-88
2023/12/29 02:29:21;;;;;;;13.13;3.03;;;9.30;99.90;;;;;;4975913;28;20050;-84
2023/12/29 02:31:52;;;;;;;12.98;2.20;;;9.20;99.90;;;;;;4959593;28;20084;-89
2023/12/29 02:34:20;;;;;;;16.38;2.63;;;9.10;99.90;;;;;;4983591;28;20133;-91
2023/12/29 02:36:50;;;;;;;14.90;2.00;;;8.10;99.90;;;;;;4975322;28;20053;-86
2023/12/29 02:39:16;;;;;;;16.52;2.33;;;8.10;99.90;;;;;;4978790;28;20093;-88
2023/12/29 02:41:42;;;;;;;17.10;2.30;;;8.70;99.90;;;;;;4995239;28;20137;-88
2023/12/29 02:44:14;;;;;;;14.27;2.45;;;9.30;99.90;;;;;;4957450;28;20111;-91
2023/12/29 02:46:39;;;;;;;14.32;2.65;;;9.20;99.90;;;;;;4987349;28;20050;-86
2023/12/29 02:49:05;;;;;;;21.50;3.40;;;8.30;99.90;;;;;;5011346;28;20058;-89
2023/12/29 02:51:31;;;;;;;26.98;3.25;;;8.70;99.90;;;;;;5012335;28;20113;-90
2023/12/29 02:53:59;;;;;;;27.08;3.67;;;9.00;99.90;;;;;;5003705;28;20429;-88
2023/12/29 02:56:25;;;;;;;25.60;3.42;;;9.80;99.90;;;;;;5004063;28;20135;-85
2023/12/29 02:58:51;;;;;;;28.45;4.22;;;8.70;99.90;;;;;;4970599;28;20534;-85
2023/12/29 03:01:17;;;;;;;31.92;4.20;;;9.10;99.90;;;;;;4974890;28;20046;-92
2023/12/29 03:03:43;;;;;;;36.55;3.15;;;9.00;99.90;;;;;;4983477;28;20426;-90
2023/12/29 03:06:14;;;;;;;27.10;4.05;;;9.70;99.90;;;;;;4986965;28;20123;-89
2023/12/29 03:08:41;;;;;;;31.58;4.63;;;8.90;99.90;;;;;;5008043;28;20050;-84
2023/12/29 03:11:10;;;;;;;28.25;4.05;;;9.80;99.90;;;;;;4976030;28;20052;-88
2023/12/29 03:13:36;;;;;;;21.63;3.13;;;9.50;99.90;;;;;;4990888;28;21612;-85
2023/12/29 03:16:01;;;;;;;24.40;3.42;;;9.00;99.90;;;;;;4992101;28;20050;-86
2023/12/29 03:18:30;;;;;;;34.90;5.43;;;8.90;99.90;;;;;;5009745;28;20371;-85
2023/12/29 03:20:56;;;;;;;30.70;4.47;;;8.90;99.90;;;;;;4989740;28;20093;-86
2023/12/29 03:23:21;;;;;;;19.10;2.92;;;9.00;99.90;;;;;;4976303;28;20429;-87
2023/12/29 03:25:50;;;;;;;28.15;4.03;;;9.40;99.90;;;;;;4976323;28;20076;-85
2023/12/29 03:28:18;;;;;;;28.92;4.40;;;9.00;99.90;;;;;;4993056;28;20073;-88
2023/12/29 03:30:46;;;;;;;26.27;4.13;;;9.70;99.90;;;;;;4986574;28;20458;-90
2023/12/29 03:33:24;;;;;;;34.30;4.47;;;8.60;99.90;;;;;;4977563;28;20064;-85
2023/12/29 03:35:49;;;;;;;21.48;4.43;;;9.90;99.90;;;;;;4993419;28;20041;-87
2023/12/29 03:38:15;;;;;;;22.35;3.95;;;9.40;99.90;;;;;;5010560;28;20500;-87
2023/12/29 03:40:41;;;;;;;21.55;4.00;;;9.20;99.90;;;;;;4992561;28;20089;-86
2023/12/29 03:43:09;;;;;;;24.30;4.07;;;10.10;99.90;;;;;;4976094;28;20497;-87
2023/12/29 03:45:44;;;;;;;31.73;4.80;;;9.30;99.90;;;;;;4976465;28;20045;-87
2023/12/29 03:48:10;;;;;;;;;;;9.20;99.90;;;;;;4977392;28;20064;-85
2023/12/29 03:50:38;;;;;;;35.97;4.20;;;9.20;99.90;;;;;;4992644;28;19925;-84
2023/12/29 03:53:14;;;;;;;30.30;4.55;;;9.60;99.90;;;;;;5003441;28;20042;-89
2023/12/29 03:55:40;;;;;;;31.10;4.32;;;9.10;99.90;;;;;;4992735;28;20073;-86
2023/12/29 03:58:08;;;;;;;30.98;4.43;;;9.90;99.90;;;;;;4992182;28;20045;-88
2023/12/29 04:00:36;;;;;;;16.42;3.78;;;9.30;99.90;;;;;;4975324;28;20049;-88
2023/12/29 04:03:02;;;;;;;30.27;5.03;;;9.90;99.90;;;;;;5009970;28;20144;-90
2023/12/29 04:05:28;;;;;;;24.80;4.43;;;9.30;99.90;;;;;;4992852;28;20046;-88
2023/12/29 04:07:54;;;;;;;29.88;4.50;;;9.20;99.90;;;;;;5009402;28;20080;-85
2023/12/29 04:10:22;;;;;;;33.25;4.32;;;9.40;99.90;;;;;;4985845;28;20124;-86
2023/12/29 04:12:51;;;;;;;32.78;4.55;;;9.30;99.90;;;;;;4991816;28;20052;-90
2023/12/29 04:15:19;;;;;;;24.55;3.67;;;9.30;99.90;;;;;;4975937;28;20112;-88
2023/12/29 04:17:50;;;;;;;21.48;3.38;;;10.00;99.90;;;;;;4976404;28;20038;-88
2023/12/29 04:20:22;;;;;;;40.05;5.40;;;9.90;99.90;;;;;;4976001;28;20077;-89
2023/12/29 04:22:48;;;;;;;23.20;4.45;;;9.80;99.90;;;;;;4992640;28;20123;-93
2023/12/29 04:25:19;;;;;;;21.17;4.03;;;10.20;99.90;;;;;;4974072;28;20061;-92
2023/12/29 04:27:48;;;;;;;26.52;4.43;;;10.20;99.90;;;;;;4988408;28;20049;-90
2023/12/29 04:30:13;;;;;;;21.33;3.88;;;9.20;99.90;;;;;;4967733;28;20057;-89
2023/12/29 04:32:39;;;;;;;24.23;3.95;;;10.10;99.90;;;;;;4986997;28;20123;-90
2023/12/29 04:35:05;;;;;;;19.92;2.75;;;10.10;99.90;;;;;;4975783;28;20128;-89
2023/12/29 04:37:31;;;;;;;28.67;4.30;;;9.30;99.90;;;;;;4981475;28;20407;-90
2023/12/29 04:39:57;;;;;;;29.02;3.88;;;9.30;99.90;;;;;;4980837;28;20121;-91
2023/12/29 04:42:22;;;;;;;23.88;3.75;;;10.10;99.90;;;;;;4986222;28;20101;-93
2023/12/29 04:44:51;;;;;;;22.02;3.20;;;10.20;99.90;;;;;;5007001;28;20046;-90
2023/12/29 04:47:17;;;;;;;23.08;3.08;;;9.70;99.90;;;;;;4968351;28;20093;-89
2023/12/29 04:49:42;;;;;;;22.15;3.53;;;9.30;99.90;;;;;;4987466;28;20085;-89
2023/12/29 04:52:08;;;;;;;22.58;3.97;;;10.30;99.90;;;;;;4973814;28;20052;-92
2023/12/29 04:54:40;;;;;;;24.05;3.03;;;9.30;99.90;;;;;;4992661;28;20084;-90
2023/12/29 04:57:08;;;;;;;24.30;3.15;;;9.20;99.90;;;;;;4972042;28;20096;-87
2023/12/29 04:59:44;;;;;;;;;;;;;;;;;;;;;
2023/12/29 05:02:42;;;;;;;22.42;4.38;;;10.00;99.90;;;;;;4983675;28;20093;-90
2023/12/29 05:05:11;;;;;;;27.67;4.10;;;9.50;99.90;;;;;;4971648;28;20145;-88
2023/12/29 05:07:39;;;;;;;31.55;3.70;;;9.40;99.90;;;;;;4988477;28;20050;-90
2023/12/29 05:10:06;;;;;;;20.88;3.10;;;9.20;99.90;;;;;;4992018;28;20448;-91
2023/12/29 05:12:31;;;;;;;29.02;3.63;;;9.20;99.90;;;;;;4975766;28;20041;-87
2023/12/29 05:14:57;;;;;;;25.75;3.40;;;9.50;99.90;;;;;;5006346;28;20085;-89
2023/12/29 05:17:23;;;;;;;25.30;3.88;;;10.20;99.90;;;;;;4988333;28;20045;-88
2023/12/29 05:19:51;;;;;;;21.92;4.75;;;9.70;99.90;;;;;;4993639;28;20049;-89
2023/12/29 05:22:28;;;;;;;32.83;4.45;;;10.30;99.90;;;;;;4990037;28;20049;-90
2023/12/29 05:24:59;;;;;;;24.05;3.95;;;9.40;99.90;;;;;;4992548;28;20044;-88
2023/12/29 05:27:33;;;;;;;26.60;4.43;;;9.00;99.90;;;;;;5013401;28;20054;-89
2023/12/29 05:30:12;;;;;;;26.70;4.47;;;9.50;99.90;;;;;;4988599;28;20715;-89
2023/12/29 05:32:38;;;;;;;27.33;4.05;;;9.30;99.90;;;;;;5007824;28;20060;-87
2023/12/29 05:35:09;;;;;;;37.35;5.30;;;9.80;99.90;;;;;;5013053;28;20041;-88
2023/12/29 05:37:44;;;;;;;29.63;3.53;;;9.40;99.90;;;;;;5013510;28;20045;-89
2023/12/29 05:40:10;;;;;;;26.45;3.72;;;9.30;99.90;;;;;;4979717;28;20050;-94
2023/12/29 05:42:36;;;;;;;31.90;4.93;;;9.40;99.90;;;;;;4979330;28;20053;-88
2023/12/29 05:45:01;;;;;;;24.88;4.13;;;9.30;99.90;;;;;;5012855;28;20184;-88
2023/12/29 05:47:29;;;;;;;33.42;4.22;;;9.30;99.90;;;;;;4994519;28;20058;-90
2023/12/29 05:49:55;;;;;;;32.03;4.47;;;9.30;99.90;;;;;;4993239;28;20129;-88
2023/12/29 05:52:22;;;;;;;29.02;4.53;;;9.30;99.90;;;;;;4994817;28;20129;-88
2023/12/29 05:54:57;;;;;;;30.70;3.92;;;9.30;99.90;;;;;;4977427;28;20053;-87
2023/12/29 05:57:23;;;;;;;;;;;9.30;99.90;;;;;;4995660;28;20046;-87
2023/12/29 05:59:56;;;;;;;20.17;3.22;;;9.30;99.90;;;;;;4993717;28;19928;-89
2023/12/29 06:02:25;;;;;;;26.27;3.88;;;9.30;99.90;;;;;;4992259;28;20085;-90
2023/12/29 06:04:50;;;;;;;23.08;3.05;;;9.40;99.90;;;;;;4993311;28;20049;-89
2023/12/29 06:07:19;;;;;;;36.25;4.00;;;9.30;99.90;;;;;;4993435;28;20647;-86
2023/12/29 06:09:44;;;;;;;33.42;4.43;;;9.40;99.90;;;;;;4977306;28;20042;-87
2023/12/29 06:12:10;;;;;;;28.67;3.60;;;9.40;99.90;;;;;;5010907;28;20507;-87
2023/12/29 06:14:44;;;;;;;24.67;4.28;;;9.40;99.90;;;;;;4979164;28;20052;-88
2023/12/29 06:17:10;;;;;;;25.17;4.03;;;9.40;99.90;;;;;;4993949;28;20498;-87
2023/12/29 06:19:39;;;;;;;22.27;3.15;;;9.40;99.90;;;;;;5012360;28;20050;-87
2023/12/29 06:22:11;;;;;;;30.25;4.50;;;9.40;99.90;;;;;;4977709;28;20052;-94
2023/12/29 06:24:46;;;;;;;22.73;3.90;;;9.30;99.90;;;;;;4993961;28;20054;-87
2023/12/29 06:27:12;;;;;;;28.45;4.28;;;8.90;99.90;;;;;;4994433;28;20061;-89
2023/12/29 06:29:42;;;;;;;24.58;3.20;;;9.30;99.90;;;;;;4976852;28;20052;-86
2023/12/29 06:32:08;;;;;;;27.92;4.13;;;9.30;99.90;;;;;;4994128;28;20046;-90
2023/12/29 06:34:34;;;;;;;20.45;3.80;;;9.30;99.90;;;;;;5008890;28;20046;-91
2023/12/29 06:37:00;;;;;;;25.17;5.05;;;9.20;99.90;;;;;;4976244;28;20773;-86
2023/12/29 06:39:26;;;;;;;31.15;4.80;;;9.20;99.90;;;;;;5010582;28;20096;-91
2023/12/29 06:41:51;;;;;;;23.70;3.90;;;9.10;99.90;;;;;;4992506;28;20077;-85
2023/12/29 06:44:17;;;;;;;30.15;4.03;;;9.10;99.90;;;;;;4994494;28;20104;-87
2023/12/29 06:46:43;;;;;;;23.65;3.83;;;9.00;99.90;;;;;;4993546;28;20061;-88
2023/12/29 06:49:09;;;;;;;22.65;4.78;;;9.00;99.90;;;;;;4992697;28;20042;-87
2023/12/29 06:51:40;;;;;;;23.85;3.28;;;9.00;99.90;;;;;;4992331;28;20081;-87
2023/12/29 06:54:06;;;;;;;30.92;4.72;;;9.00;99.90;;;;;;4992042;28;20046;-89
2023/12/29 06:56:32;;;;;;;25.17;3.63;;;9.10;99.90;;;;;;4991891;28;20541;-86
2023/12/29 06:58:58;;;;;;;30.05;3.97;;;9.00;99.90;;;;;;5009891;28;20053;-88
2023/12/29 07:01:24;;;;;;;25.23;4.47;;;9.00;99.90;;;;;;5009211;28;20440;-87
2023/12/29 07:03:50;;;;;;;27.95;3.70;;;9.10;99.90;;;;;;4991996;28;20653;-90
2023/12/29 07:06:16;;;;;;;39.20;4.43;;;9.10;99.90;;;;;;5009199;28;20053;-87
2023/12/29 07:08:41;;;;;;;39.42;4.50;;;9.10;99.90;;;;;;4991186;28;20103;-87
2023/12/29 07:11:11;;;;;;;29.42;3.95;;;9.10;99.90;;;;;;4974906;28;20054;-86
2023/12/29 07:13:37;;;;;;;26.83;3.88;;;9.20;99.90;;;;;;4992056;28;20089;-92
2023/12/29 07:16:03;;;;;;;27.75;4.13;;;9.20;99.90;;;;;;5009351;28;20072;-88
2023/12/29 07:18:29;;;;;;;30.42;3.60;;;9.20;99.90;;;;;;5011392;28;20038;-87
2023/12/29 07:20:55;;;;;;;23.27;4.10;;;9.20;99.90;;;;;;4992042;28;20052;-85
2023/12/29 07:23:21;;;;;;;30.17;5.13;;;9.20;99.90;;;;;;5008593;28;20042;-85
2023/12/29 07:25:49;;;;;;;31.80;3.92;;;9.20;99.90;;;;;;4976265;28;20401;-88
2023/12/29 07:28:15;;;;;;;38.67;4.43;;;9.20;99.90;;;;;;4977066;28;20050;-88
2023/12/29 07:30:41;;;;;;;38.08;4.80;;;9.20;99.90;;;;;;4975211;28;20137;-88
2023/12/29 07:33:06;;;;;;;33.63;4.97;;;9.20;99.90;;;;;;5009730;28;20088;-87
2023/12/29 07:35:32;;;;;;;25.20;3.55;;;9.30;99.90;;;;;;4975105;28;20117;-84
2023/12/29 07:38:06;;;;;;;40.40;5.05;;;9.20;99.90;;;;;;4991347;28;20050;-90
2023/12/29 07:40:32;;;;;;;17.48;3.45;;;9.20;99.90;;;;;;4992845;28;20085;-88
2023/12/29 07:42:58;;;;;;;27.08;3.90;;;8.90;99.90;;;;;;5009711;28;20084;-91
2023/12/29 07:45:24;;;;;;;27.50;4.50;;;9.30;99.90;;;;;;4990710;28;20053;-89
2023/12/29 07:47:53;;;;;;;33.15;3.90;;;9.30;99.90;;;;;;4975257;28;20568;-87
2023/12/29 07:50:18;;;;;;;26.70;4.18;;;9.30;99.90;;;;;;5009187;28;20054;-93
2023/12/29 07:52:44;;;;;;;29.83;4.07;;;9.30;99.90;;;;;;5008958;28;20061;-90
2023/12/29 07:55:10;;;;;;;27.60;4.32;;;9.30;99.90;;;;;;4976612;28;20069;-87
2023/12/29 07:57:35;;;;;;;26.42;3.35;;;10.00;99.90;;;;;;4976888;28;20045;-89
2023/12/29 08:00:06;;;;;;;35.05;4.95;;;9.90;99.90;;;;;;4990086;28;20065;-88
2023/12/29 08:02:32;;;;;;;37.08;5.07;;;9.40;99.90;;;;;;5008391;28;20050;-89
2023/12/29 08:04:58;;;;;;;17.60;3.53;;;9.40;99.90;;;;;;5010196;28;20096;-88
2023/12/29 08:07:24;;;;;;;33.90;4.75;;;9.80;99.90;;;;;;4992968;28;20042;-91
2023/12/29 08:09:50;;;;;;;22.63;4.45;;;9.40;99.90;;;;;;5008909;28;20066;-92
2023/12/29 08:12:15;;;;;;;29.30;3.83;;;9.80;99.90;;;;;;5006699;28;20486;-85
2023/12/29 08:14:41;;;;;;;26.98;3.97;;;9.60;99.90;;;;;;4991810;28;20572;-87
2023/12/29 08:17:07;;;;;;;32.90;4.90;;;10.20;99.90;;;;;;4992616;28;20485;-88
2023/12/29 08:19:32;;;;;;;34.08;4.25;;;8.90;99.90;;;;;;4991036;28;20077;-88
2023/12/29 08:21:58;;;;;;;25.75;4.25;;;9.30;99.90;;;;;;4992525;28;20077;-91
2023/12/29 08:24:24;;;;;;;27.60;4.18;;;10.10;99.90;;;;;;4974050;28;20053;-86
2023/12/29 08:26:49;;;;;;;26.63;4.13;;;10.10;99.90;;;;;;4975508;28;20054;-86
2023/12/29 08:29:15;;;;;;;29.65;3.72;;;9.40;99.90;;;;;;4993305;28;20046;-89
2023/12/29 08:31:43;;;;;;;29.92;4.22;;;10.10;99.90;;;;;;4977101;28;20053;-88
2023/12/29 08:34:12;;;;;;;26.48;3.72;;;9.50;99.90;;;;;;4992664;28;20661;-90
2023/12/29 08:36:37;;;;;;;31.65;4.35;;;9.40;99.90;;;;;;5010053;28;20089;-87
2023/12/29 08:39:03;;;;;;;30.95;4.60;;;10.30;99.90;;;;;;4976027;28;20069;-93
2023/12/29 08:41:29;;;;;;;31.02;4.30;;;9.30;99.90;;;;;;4991981;28;20042;-89
2023/12/29 08:43:55;;;;;;;29.13;5.30;;;9.70;99.90;;;;;;5009498;28;20046;-87
2023/12/29 08:46:20;;;;;;;25.95;3.97;;;9.30;99.90;;;;;;4991807;28;20126;-92
2023/12/29 08:48:46;;;;;;;24.40;3.88;;;9.30;99.90;;;;;;4958340;28;20054;-88
2023/12/29 08:51:12;;;;;;;32.63;4.78;;;9.30;99.90;;;;;;4982435;28;20054;-88
2023/12/29 08:53:38;;;;;;;38.22;5.82;;;9.70;99.90;;;;;;4950959;28;20051;-87
2023/12/29 08:56:07;;;;;;;29.83;4.68;;;9.30;99.90;;;;;;4961396;28;20046;-88
2023/12/29 08:58:33;;;;;;;32.38;5.43;;;9.20;99.90;;;;;;4960517;28;20054;-89
2023/12/29 09:01:01;;;;;;;29.48;4.50;;;9.20;99.90;;;;;;4996356;28;20049;-91
2023/12/29 09:03:27;;;;;;;21.00;4.13;;;9.60;99.90;;;;;;4978343;28;20050;-88
2023/12/29 09:05:54;;;;;;;37.90;4.95;;;9.30;99.90;;;;;;4978165;28;20073;-87
2023/12/29 09:08:19;;;;;;;23.58;3.97;;;9.90;99.90;;;;;;4991840;28;20053;-94
2023/12/29 09:10:45;;;;;;;20.00;3.33;;;9.40;99.90;;;;;;4976756;28;20046;-88
2023/12/29 09:13:14;;;;;;;27.92;3.63;;;9.30;99.90;;;;;;4982878;28;20381;-85
2023/12/29 09:15:39;;;;;;;17.05;2.60;;;9.30;99.90;;;;;;4975544;28;20530;-92
2023/12/29 09:18:06;;;;;;;22.25;4.15;;;9.80;99.90;;;;;;4975620;28;20054;-85
2023/12/29 09:20:32;;;;;;;22.13;2.75;;;9.20;99.90;;;;;;4994423;28;20050;-91
2023/12/29 09:22:58;;;;;;;25.45;3.60;;;9.90;99.90;;;;;;4959637;28;20502;-87
2023/12/29 09:25:25;;;;;;;28.58;3.60;;;10.10;99.90;;;;;;4973450;28;20128;-86
2023/12/29 09:27:52;;;;;;;26.48;3.75;;;9.30;99.90;;;;;;4956082;28;20050;-86
2023/12/29 09:30:18;;;;;;;32.15;4.25;;;10.20;99.90;;;;;;4991015;28;20136;-86
2023/12/29 09:32:44;;;;;;;26.10;4.05;;;9.40;99.90;;;;;;4989877;28;20081;-88
2023/12/29 09:35:10;;;;;;;34.13;4.70;;;9.40;99.90;;;;;;4992152;28;20054;-85
2023/12/29 09:37:35;;;;;;;29.02;3.85;;;9.50;99.90;;;;;;4956476;28;20042;-86
2023/12/29 09:40:04;;;;;;;26.08;4.35;;;9.60;99.90;;;;;;4975697;28;20050;-88
2023/12/29 09:42:32;;;;;;;30.48;5.07;;;9.40;99.90;;;;;;4973963;28;20086;-88
2023/12/29 09:45:01;;;;;;;19.30;2.50;;;9.60;99.90;;;;;;4974578;28;20042;-88
2023/12/29 09:47:28;;;;;;;19.20;2.92;;;9.50;99.90;;;;;;4981484;28;20061;-88
2023/12/29 09:49:54;;;;;;;24.92;4.03;;;9.60;99.90;;;;;;5011519;28;20044;-88
2023/12/29 09:52:24;;;;;;;25.67;4.57;;;9.10;99.90;;;;;;4993301;28;20034;-87
2023/12/29 09:54:51;;;;;;;33.10;4.07;;;10.30;99.90;;;;;;4993090;28;20759;-90
2023/12/29 09:57:18;;;;;;;22.27;3.38;;;9.80;99.90;;;;;;4991022;28;20050;-86
2023/12/29 09:59:51;;;;;;;24.95;3.38;;;10.40;99.90;;;;;;5010007;28;20042;-87
2023/12/29 10:02:17;;;;;;;23.45;3.70;;;9.70;99.90;;;;;;4974319;28;20061;-88
2023/12/29 10:04:43;;;;;;;16.38;3.25;;;9.60;99.90;;;;;;4985218;28;20066;-88
2023/12/29 10:07:18;;;;;;;27.83;4.65;;;10.30;99.90;;;;;;5005829;28;20069;-86
2023/12/29 10:09:51;;;;;;;17.13;3.25;;;10.10;99.90;;;;;;5009546;28;20042;-88
2023/12/29 10:12:23;;;;;;;24.80;2.92;;;9.70;99.90;;;;;;4973239;28;20080;-88
2023/12/29 10:15:14;;;;;;;25.02;3.20;;;9.70;99.90;;;;;;4975460;28;20038;-87
2023/12/29 10:17:43;;;;;;;24.63;3.40;;;9.70;99.90;;;;;;5003159;28;20061;-88
2023/12/29 10:20:16;;;;;;;25.77;3.75;;;9.70;99.90;;;;;;4993025;28;20042;-91
2023/12/29 10:22:51;;;;;;;16.77;2.60;;;9.70;99.90;;;;;;4992850;28;20087;-88
2023/12/29 10:25:17;;;;;;;18.35;2.95;;;9.70;99.90;;;;;;5010173;28;20045;-89
2023/12/29 10:27:43;;;;;;;21.90;3.42;;;9.80;99.90;;;;;;5011313;28;20751;-88
2023/12/29 10:30:11;;;;;;;23.73;4.10;;;9.80;99.90;;;;;;4977966;28;20042;-87
2023/12/29 10:32:36;;;;;;;17.88;3.03;;;9.70;99.90;;;;;;5010245;28;20050;-89
2023/12/29 10:35:12;;;;;;;17.00;2.65;;;10.50;99.90;;;;;;4976710;28;20045;-89
2023/12/29 10:37:38;;;;;;;24.13;2.75;;;9.60;99.90;;;;;;4977566;28;20042;-88
2023/12/29 10:40:08;;;;;;;13.82;2.88;;;9.60;99.90;;;;;;4991545;28;20053;-88
2023/12/29 10:42:33;;;;;;;15.45;2.42;;;9.50;99.90;;;;;;4974144;28;20050;-91
2023/12/29 10:45:12;;;;;;;14.63;2.17;;;9.70;99.90;;;;;;4978691;28;20104;-86
2023/12/29 10:47:43;;;;;;;18.77;3.17;;;9.50;99.90;;;;;;5011970;28;20050;-92
2023/12/29 10:50:09;;;;;;;26.58;2.65;;;9.60;99.90;;;;;;4988554;28;20680;-90
2023/12/29 10:52:37;;;;;;;17.83;2.55;;;10.30;99.90;;;;;;4993650;28;20157;-85
2023/12/29 10:55:07;;;;;;;18.58;2.72;;;10.20;99.90;;;;;;5003148;28;20057;-86
2023/12/29 10:57:34;;;;;;;16.42;2.30;;;9.30;99.90;;;;;;4985398;28;20038;-90
2023/12/29 11:00:00;;;;;;;17.77;2.50;;;10.00;99.90;;;;;;5004103;28;20043;-91
2023/12/29 11:02:39;;;;;;;15.57;2.58;;;9.50;99.90;;;;;;4983599;28;20054;-91
2023/12/29 11:05:30;;;;;;;19.15;3.15;;;10.00;99.90;;;;;;4959396;28;20045;-88
2023/12/29 11:07:59;;;;;;;22.77;2.70;;;9.40;99.90;;;;;;4972207;28;20540;-90
2023/12/29 11:10:30;;;;;;;23.50;3.38;;;9.80;99.90;;;;;;4999833;28;20046;-88
2023/12/29 11:13:04;;;;;;;17.60;2.53;;;9.60;99.90;;;;;;4992130;28;20092;-91
2023/12/29 11:15:29;;;;;;;18.20;2.73;;;10.20;99.90;;;;;;4986370;28;20049;-89
2023/12/29 11:17:56;;;;;;;20.08;3.15;;;9.60;99.90;;;;;;4968322;28;20137;-87
2023/12/29 11:20:23;;;;;;;19.50;2.78;;;9.80;99.90;;;;;;4996823;28;20502;-86
2023/12/29 11:22:49;;;;;;;13.75;2.20;;;9.60;99.90;;;;;;4966679;28;20069;-88
2023/12/29 11:25:15;;;;;;;21.65;2.28;;;10.10;99.90;;;;;;5002403;28;20080;-91
2023/12/29 11:27:42;;;;;;;23.92;3.38;;;10.30;99.90;;;;;;4983675;28;20076;-86
2023/12/29 11:30:11;;;;;;;20.38;2.88;;;9.90;99.90;;;;;;4983341;28;20478;-86
2023/12/29 11:32:53;;;;;;;22.27;2.95;;;10.00;99.90;;;;;;4985877;28;20077;-89
2023/12/29 11:35:28;;;;;;;19.10;2.63;;;10.00;99.90;;;;;;4984467;28;20100;-88
2023/12/29 11:38:05;;;;;;;15.18;2.28;;;10.30;99.90;;;;;;4983130;28;20053;-88
2023/12/29 11:40:44;;;;;;;14.30;2.25;;;10.10;99.90;;;;;;5002875;28;20069;-85
2023/12/29 11:43:16;;;;;;;17.25;2.78;;;10.10;99.90;;;;;;4990093;28;20054;-85
2023/12/29 11:45:42;;;;;;;12.68;1.75;;;10.90;99.90;;;;;;4976419;28;20038;-87
2023/12/29 11:48:07;;;;;;;20.73;2.97;;;10.80;99.90;;;;;;4987794;28;20382;-86
2023/12/29 11:50:36;;;;;;;16.38;2.80;;;10.60;99.90;;;;;;4984956;28;20052;-83
2023/12/29 11:53:02;;;;;;;19.55;3.60;;;10.60;99.90;;;;;;4998753;28;20125;-82
2023/12/29 11:55:36;;;;;;;18.17;2.50;;;10.20;99.90;;;;;;4965776;28;20536;-83
2023/12/29 11:58:04;;;;;;;12.70;1.93;;;10.20;99.90;;;;;;5000950;28;20452;-82
2023/12/29 12:00:56;;;;;;;11.60;1.95;;;10.20;99.90;;;;;;4992020;28;20054;-93
2023/12/29 12:03:27;;;;;;;11.23;1.88;;;10.20;99.90;;;;;;4988208;28;20913;-85
2023/12/29 12:05:55;;;;;;;10.20;1.52;;;10.70;99.90;;;;;;4999966;28;20100;-81
2023/12/29 12:08:28;;;;;;;14.50;2.28;;;10.80;99.90;;;;;;4982192;28;20081;-81
2023/12/29 12:11:17;;;;;;;18.95;2.00;;;10.60;99.90;;;;;;4987365;28;20125;-83
2023/12/29 12:13:44;;;;;;;13.60;2.28;;;9.90;99.90;;;;;;4965507;28;20137;-83
2023/12/29 12:16:42;;;;;;;16.48;2.50;;;10.00;99.90;;;;;;4984011;28;20400;-90
2023/12/29 12:19:08;;;;;;;21.85;2.72;;;10.00;99.90;;;;;;4993851;28;20045;-83
2023/12/29 12:21:35;;;;;;;18.67;2.65;;;10.10;99.90;;;;;;4984594;28;20037;-84
2023/12/29 12:24:03;;;;;;;21.08;2.85;;;10.30;99.90;;;;;;4982924;28;20108;-83
2023/12/29 12:26:30;;;;;;;14.38;2.58;;;9.70;99.90;;;;;;4998706;28;20081;-86
2023/12/29 12:28:57;;;;;;;21.27;2.65;;;9.70;99.90;;;;;;4967826;28;20045;-86
2023/12/29 12:31:23;;;;;;;15.48;2.30;;;10.20;99.90;;;;;;4986745;28;20095;-86
2023/12/29 12:33:55;;;;;;;16.98;2.38;;;9.90;99.90;;;;;;4972937;28;20046;-84
2023/12/29 12:36:28;;;;;;;19.25;2.33;;;10.20;99.90;;;;;;5001908;28;20037;-85
2023/12/29 12:38:56;;;;;;;14.13;2.30;;;10.20;99.90;;;;;;5001912;28;20049;-85
2023/12/29 12:41:26;;;;;;;13.30;2.55;;;9.60;99.90;;;;;;4988978;28;20101;-86
2023/12/29 12:44:12;;;;;;;13.23;2.03;;;9.10;99.90;;;;;;4990813;28;20060;-88
2023/12/29 12:46:49;;;;;;;18.98;2.65;;;9.10;99.90;;;;;;4990755;28;20043;-89
2023/12/29 12:49:16;;;;;;;18.05;2.97;;;9.10;99.90;;;;;;4986129;28;20089;-85
2023/12/29 12:51:43;;;;;;;19.27;3.42;;;9.00;99.90;;;;;;4974924;28;20043;-87